Time;durP1;ratioP1;P1;durP2;ratioP2;P2;SDS_P1;SDS_P2;PMS_P1;PMS_P2;Temp;Humidity;BMP_temperature;BMP_pressure;BME280_temperature;BME280_humidity;BME280_pressure;Samples;Min_cycle;Max_cycle;Signal;HPM_P1;HPM_P2
2022/10/21 00:01:05;;;;;;;15.13;7.82;;;;;;;16.42;100.00;94852.53;5076895;28;20031;-89
2022/10/21 00:03:31;;;;;;;21.58;8.82;;;;;;;16.48;100.00;94856.63;5062976;28;20031;-90
2022/10/21 00:05:56;;;;;;;25.55;10.27;;;;;;;16.61;100.00;94867.53;5062663;28;20063;-90
2022/10/21 00:08:23;;;;;;;19.70;10.18;;;;;;;16.65;100.00;94863.22;5062880;28;20413;-90
2022/10/21 00:10:59;;;;;;;18.52;7.57;;;;;;;16.76;100.00;94869.09;5062443;28;20020;-89
2022/10/21 00:13:26;;;;;;;18.70;7.63;;;;;;;16.60;100.00;94863.31;5079040;28;20425;-89
2022/10/21 00:16:04;;;;;;;12.45;6.43;;;;;;;16.73;100.00;94862.53;5078966;28;20024;-89
2022/10/21 00:18:30;;;;;;;16.35;5.28;;;;;;;16.81;100.00;94872.44;5062674;28;20039;-89
2022/10/21 00:20:56;;;;;;;11.55;5.43;;;;;;;16.85;100.00;94867.31;5062541;28;20333;-89
2022/10/21 00:23:22;;;;;;;12.35;5.05;;;;;;;16.86;100.00;94874.22;5062559;28;20024;-89
2022/10/21 00:25:47;;;;;;;10.35;4.60;;;;;;;17.11;100.00;94882.72;5078989;28;20036;-89
2022/10/21 00:28:13;;;;;;;14.45;4.53;;;;;;;17.06;100.00;94886.25;5062543;28;20031;-88
2022/10/21 00:30:47;;;;;;;9.75;4.22;;;;;;;17.05;100.00;94884.69;5080289;28;20032;-90
2022/10/21 00:33:13;;;;;;;12.40;4.85;;;;;;;16.98;100.00;94880.84;5062223;28;20090;-89
2022/10/21 00:35:39;;;;;;;11.18;3.83;;;;;;;17.03;97.95;94881.56;5078798;28;20037;-90
2022/10/21 00:38:05;;;;;;;11.77;3.90;;;;;;;17.13;93.05;94893.03;5061717;28;20048;-88
2022/10/21 00:40:30;;;;;;;8.70;3.90;;;;;;;17.13;97.71;94885.88;5078641;28;20032;-89
2022/10/21 00:42:55;;;;;;;10.98;3.95;;;;;;;16.93;100.00;94892.34;5062195;28;20038;-89
2022/10/21 00:45:27;;;;;;;15.20;4.70;;;;;;;16.81;100.00;94892.81;5078593;28;20028;-89
2022/10/21 00:47:57;;;;;;;22.35;9.57;;;;;;;17.07;100.00;94890.50;5078672;28;20042;-89
2022/10/21 00:50:44;;;;;;;26.00;11.02;;;;;;;16.76;100.00;94877.81;5062197;28;20024;-89
2022/10/21 00:53:11;;;;;;;20.52;8.60;;;;;;;16.92;100.00;94872.22;5078822;28;20032;-89
2022/10/21 00:55:40;;;;;;;15.60;7.57;;;;;;;16.74;100.00;94873.91;5061980;28;20028;-89
2022/10/21 00:58:06;;;;;;;16.35;6.43;;;;;;;16.67;100.00;94874.31;5078050;28;20028;-88
2022/10/21 01:00:31;;;;;;;17.02;6.85;;;;;;;16.67;100.00;94871.66;5061774;28;20032;-89
2022/10/21 01:02:57;;;;;;;17.73;6.43;;;;;;;16.45;100.00;94870.44;5078325;28;20035;-89
2022/10/21 01:05:23;;;;;;;23.67;7.22;;;;;;;16.17;100.00;94869.63;5078301;28;20082;-89
2022/10/21 01:07:49;;;;;;;16.58;6.10;;;;;;;15.99;100.00;94863.31;5078278;28;20027;-89
2022/10/21 01:10:15;;;;;;;19.13;6.95;;;;;;;16.01;100.00;94856.66;5061357;28;20448;-89
2022/10/21 01:12:56;;;;;;;17.45;6.38;;;;;;;16.13;100.00;94855.41;5077490;28;20056;-91
2022/10/21 01:15:24;;;;;;;14.05;5.47;;;;;;;16.31;100.00;94862.50;5078056;28;20400;-89
2022/10/21 01:17:55;;;;;;;11.52;5.72;;;;;;;16.20;100.00;94866.41;5077919;28;20041;-89
2022/10/21 01:20:26;;;;;;;11.40;4.78;;;;;;;16.54;100.00;94865.25;5078136;28;20028;-89
2022/10/21 01:23:12;;;;;;;7.78;4.15;;;;;;;16.69;99.20;94864.22;5078896;28;20352;-89
2022/10/21 01:26:08;;;;;;;13.35;4.25;;;;;;;16.70;100.00;94865.78;5077839;28;20115;-88
2022/10/21 01:28:54;;;;;;;7.95;3.97;;;;;;;16.60;100.00;94860.66;5077852;28;20126;-89
2022/10/21 01:31:29;;;;;;;15.38;3.70;;;;;;;16.63;100.00;94855.59;5077946;28;20056;-89
2022/10/21 01:34:18;;;;;;;9.80;3.97;;;;;;;16.67;95.95;94853.13;5077945;28;20024;-89
2022/10/21 01:37:02;;;;;;;11.15;3.65;;;;;;;16.70;93.96;94849.91;5077648;28;20115;-89
2022/10/21 01:39:38;;;;;;;14.27;4.40;;;;;;;16.64;95.84;94856.34;5061212;28;20059;-88
2022/10/21 01:42:27;;;;;;;12.20;3.70;;;;;;;16.62;93.62;94858.50;5060944;28;20058;-90
2022/10/21 01:45:16;;;;;;;15.88;3.97;;;;;;;16.52;92.62;94849.69;5077276;28;20025;-89
2022/10/21 01:47:57;;;;;;;8.02;4.07;;;;;;;16.64;87.97;94851.84;5076838;28;20358;-89
2022/10/21 01:50:25;;;;;;;9.90;4.03;;;;;;;16.60;91.56;94850.88;5077004;28;20035;-89
2022/10/21 01:52:54;;;;;;;8.52;3.40;;;;;;;16.57;94.18;94842.75;5060889;28;20422;-89
2022/10/21 01:55:21;;;;;;;10.10;3.78;;;;;;;16.45;98.37;94841.34;5061138;28;20055;-88
2022/10/21 01:57:53;;;;;;;5.78;3.20;;;;;;;16.34;97.35;94839.97;5077443;28;20033;-89
2022/10/21 02:00:19;;;;;;;8.65;3.47;;;;;;;16.32;93.80;94837.63;5060606;28;20353;-88
2022/10/21 02:02:46;;;;;;;8.88;3.45;;;;;;;16.33;93.27;94841.84;5077312;28;20040;-89
2022/10/21 02:05:21;;;;;;;10.77;3.47;;;;;;;16.53;89.66;94837.25;5077425;28;20315;-89
2022/10/21 02:07:47;;;;;;;9.20;3.60;;;;;;;16.66;89.00;94833.81;5060387;28;20028;-89
2022/10/21 02:10:13;;;;;;;6.13;3.13;;;;;;;16.59;95.67;94827.34;5076957;28;20334;-89
2022/10/21 02:12:39;;;;;;;8.48;3.28;;;;;;;16.45;98.11;94835.31;5060858;28;20024;-89
2022/10/21 02:15:08;;;;;;;8.98;3.15;;;;;;;16.44;97.82;94839.78;5060450;28;20024;-89
2022/10/21 02:17:35;;;;;;;9.70;3.15;;;;;;;16.32;99.57;94839.47;5060322;28;20037;-89
2022/10/21 02:20:06;;;;;;;11.13;3.67;;;;;;;15.82;100.00;94835.53;5060732;28;20036;-89
2022/10/21 02:22:32;;;;;;;8.13;3.65;;;;;;;15.98;100.00;94825.50;5076986;28;20047;-89
2022/10/21 02:25:04;;;;;;;14.57;3.50;;;;;;;16.07;99.08;94817.72;5076159;28;20083;-89
2022/10/21 02:27:30;;;;;;;7.13;3.53;;;;;;;16.09;100.00;94812.94;5076666;28;20024;-89
2022/10/21 02:29:58;;;;;;;9.05;3.00;;;;;;;16.18;100.00;94811.16;5076909;28;20024;-88
2022/10/21 02:33:00;;;;;;;12.70;4.43;;;;;;;16.10;100.00;94806.56;5076513;28;20024;-88
2022/10/21 02:35:40;;;;;;;13.60;4.65;;;;;;;15.77;100.00;94804.69;5077460;28;20107;-90
2022/10/21 02:38:37;;;;;;;8.15;3.35;;;;;;;15.76;100.00;94804.97;5076283;28;20147;-89
2022/10/21 02:41:07;;;;;;;11.00;3.60;;;;;;;15.83;100.00;94797.47;5076233;28;20035;-89
2022/10/21 02:43:40;;;;;;;16.15;4.55;;;;;;;15.90;100.00;94803.19;5059944;28;20035;-89
2022/10/21 02:46:11;;;;;;;9.23;3.97;;;;;;;16.04;100.00;94794.50;5069427;28;20028;-89
2022/10/21 02:48:38;;;;;;;7.90;4.00;;;;;;;16.03;100.00;94798.22;5047752;28;20052;-89
2022/10/21 02:51:05;;;;;;;17.40;3.97;;;;;;;16.11;100.00;94802.84;5070278;28;20037;-90
2022/10/21 02:53:31;;;;;;;10.43;4.05;;;;;;;16.10;100.00;94798.63;5068706;28;20028;-89
2022/10/21 02:55:56;;;;;;;11.68;3.97;;;;;;;15.95;100.00;94795.19;5055910;28;20028;-90
2022/10/21 02:58:22;;;;;;;11.82;4.70;;;;;;;16.05;100.00;94777.56;5070047;28;20123;-90
2022/10/21 03:00:51;;;;;;;9.63;4.13;;;;;;;16.11;100.00;94793.03;5056225;28;20036;-89
2022/10/21 03:03:16;;;;;;;10.15;4.03;;;;;;;16.07;100.00;94794.72;5056059;28;20036;-89
2022/10/21 03:05:42;;;;;;;8.02;4.00;;;;;;;16.07;100.00;94780.72;5056212;28;20028;-89
2022/10/21 03:08:07;;;;;;;7.65;3.80;;;;;;;16.01;100.00;94795.09;5056154;28;20025;-89
2022/10/21 03:10:33;;;;;;;8.27;3.90;;;;;;;16.02;100.00;94799.28;5039467;28;20032;-90
2022/10/21 03:12:58;;;;;;;10.98;3.70;;;;;;;15.84;100.00;94794.50;5055647;28;20029;-90
2022/10/21 03:15:24;;;;;;;16.17;4.25;;;;;;;15.72;100.00;94782.84;5055849;28;20119;-90
2022/10/21 03:17:49;;;;;;;11.02;4.18;;;;;;;15.58;100.00;94791.50;5038783;28;20032;-90
2022/10/21 03:20:15;;;;;;;8.43;4.22;;;;;;;15.82;100.00;94801.94;5055569;28;20539;-89
2022/10/21 03:22:43;;;;;;;11.57;4.05;;;;;;;15.83;100.00;94797.47;5055793;28;20116;-89
2022/10/21 03:25:09;;;;;;;8.80;4.20;;;;;;;15.98;100.00;94799.09;5039775;28;20430;-89
2022/10/21 03:27:35;;;;;;;10.07;3.80;;;;;;;15.97;100.00;94808.09;5055719;28;20029;-89
2022/10/21 03:30:01;;;;;;;9.57;4.55;;;;;;;15.95;100.00;94811.03;5072881;28;20341;-90
2022/10/21 03:32:26;;;;;;;16.77;5.03;;;;;;;15.79;100.00;94802.53;5097044;28;20043;-89
2022/10/21 03:34:51;;;;;;;15.77;5.03;;;;;;;15.97;100.00;94808.88;5095828;28;20047;-89
2022/10/21 03:37:17;;;;;;;11.15;4.32;;;;;;;15.62;100.00;94813.63;5095827;28;20035;-89
2022/10/21 03:39:42;;;;;;;10.43;4.85;;;;;;;15.85;100.00;94805.88;5097301;28;20032;-90
2022/10/21 03:42:08;;;;;;;5.78;3.67;;;;;;;16.14;100.00;94798.81;5095306;28;20055;-89
2022/10/21 03:44:33;;;;;;;10.20;4.72;;;;;;;16.17;100.00;94792.97;5079163;28;20069;-89
2022/10/21 03:46:59;;;;;;;7.05;4.00;;;;;;;16.11;100.00;94784.34;5096131;28;20428;-89
2022/10/21 03:49:24;;;;;;;10.38;4.85;;;;;;;16.22;100.00;94790.22;5097527;28;20028;-89
2022/10/21 03:51:50;;;;;;;10.45;4.70;;;;;;;16.09;100.00;94799.72;5095621;28;20035;-89
2022/10/21 03:54:16;;;;;;;12.60;5.20;;;;;;;15.91;100.00;94798.69;5079082;28;20067;-89
2022/10/21 03:56:41;;;;;;;13.70;4.75;;;;;;;15.90;100.00;94795.25;5095983;28;20115;-89
2022/10/21 03:59:07;;;;;;;9.73;4.72;;;;;;;16.14;100.00;94794.31;5079106;28;20067;-88
2022/10/21 04:01:32;;;;;;;10.55;3.85;;;;;;;16.18;100.00;94791.88;5078869;28;20031;-89
2022/10/21 04:03:57;;;;;;;12.27;4.60;;;;;;;16.01;100.00;94787.94;5095684;28;20030;-88
2022/10/21 04:06:23;;;;;;;10.18;4.53;;;;;;;15.76;100.00;94786.47;5095829;28;20030;-89
2022/10/21 04:08:48;;;;;;;8.15;4.38;;;;;;;16.00;100.00;94780.31;5079159;28;20405;-89
2022/10/21 04:11:14;;;;;;;20.02;4.57;;;;;;;15.65;100.00;94786.66;5095731;28;20047;-89
2022/10/21 04:13:39;;;;;;;12.13;4.85;;;;;;;15.90;100.00;94784.69;5078946;28;20063;-89
2022/10/21 04:16:06;;;;;;;15.30;4.88;;;;;;;15.77;100.00;94791.47;5095552;28;20499;-89
2022/10/21 04:18:33;;;;;;;10.88;4.68;;;;;;;15.80;100.00;94790.13;5078800;28;20042;-89
2022/10/21 04:20:58;;;;;;;8.82;4.53;;;;;;;16.00;100.00;94786.38;5078863;28;20490;-89
2022/10/21 04:23:24;;;;;;;9.40;4.68;;;;;;;16.07;100.00;94797.34;5095500;28;20032;-88
2022/10/21 04:25:49;;;;;;;10.63;4.50;;;;;;;16.09;100.00;94789.91;5096639;28;20028;-88
2022/10/21 04:28:14;;;;;;;10.82;4.57;;;;;;;16.13;100.00;94798.03;5095368;28;20157;-88
2022/10/21 04:30:40;;;;;;;10.45;4.43;;;;;;;16.12;100.00;94788.56;5078642;28;20421;-89
2022/10/21 04:33:05;;;;;;;12.40;4.63;;;;;;;16.11;100.00;94797.56;5078748;28;20051;-88
2022/10/21 04:35:31;;;;;;;10.85;4.75;;;;;;;16.10;100.00;94796.00;5079059;28;20126;-89
2022/10/21 04:37:59;;;;;;;15.40;5.65;;;;;;;16.07;100.00;94791.28;5095288;28;20047;-89
2022/10/21 04:40:25;;;;;;;18.35;5.47;;;;;;;15.90;100.00;94787.31;5078965;28;20353;-88
2022/10/21 04:42:50;;;;;;;18.73;5.18;;;;;;;16.14;100.00;94788.25;5078520;28;20035;-88
2022/10/21 04:45:17;;;;;;;10.35;5.07;;;;;;;16.19;100.00;94785.53;5078640;28;20024;-88
2022/10/21 04:47:42;;;;;;;10.50;5.53;;;;;;;16.25;100.00;94781.69;5097371;28;20020;-88
2022/10/21 04:50:08;;;;;;;12.55;5.10;;;;;;;16.31;100.00;94785.84;5082116;28;20039;-88
2022/10/21 04:52:33;;;;;;;15.70;5.85;;;;;;;16.35;100.00;94780.72;5098850;28;20028;-88
2022/10/21 04:54:59;;;;;;;13.20;5.22;;;;;;;16.25;100.00;94779.06;5098648;28;20028;-89
2022/10/21 04:57:24;;;;;;;11.38;5.70;;;;;;;16.27;100.00;94784.81;5081951;28;20043;-88
2022/10/21 04:59:50;;;;;;;11.77;6.28;;;;;;;16.25;100.00;94782.50;5081609;28;20024;-88
2022/10/21 05:02:15;;;;;;;13.45;5.43;;;;;;;16.36;100.00;94790.25;5098545;28;20028;-89
2022/10/21 05:04:41;;;;;;;13.25;6.03;;;;;;;16.51;100.00;94789.16;5081958;28;20024;-88
2022/10/21 05:07:06;;;;;;;14.18;5.78;;;;;;;16.48;100.00;94790.50;5082142;28;20123;-88
2022/10/21 05:09:32;;;;;;;15.77;5.18;;;;;;;16.51;100.00;94782.03;5081732;28;20035;-88
2022/10/21 05:11:57;;;;;;;13.70;6.32;;;;;;;16.50;100.00;94780.44;5098384;28;20032;-88
2022/10/21 05:14:23;;;;;;;15.13;7.43;;;;;;;16.42;100.00;94775.84;5081702;28;20337;-88
2022/10/21 05:16:48;;;;;;;16.40;6.97;;;;;;;16.24;100.00;94778.28;5098523;28;20032;-89
2022/10/21 05:19:18;;;;;;;16.38;7.40;;;;;;;16.12;100.00;94780.63;5098596;28;20093;-89
2022/10/21 05:21:45;;;;;;;13.85;6.72;;;;;;;16.32;100.00;94776.03;5098157;28;20433;-88
2022/10/21 05:24:12;;;;;;;16.92;6.95;;;;;;;16.42;100.00;94773.19;5090692;28;20036;-89
2022/10/21 05:26:37;;;;;;;17.25;7.70;;;;;;;16.31;100.00;94769.97;5061736;28;20028;-89
2022/10/21 05:29:03;;;;;;;13.95;7.45;;;;;;;16.45;100.00;94771.81;5078117;28;20507;-88
2022/10/21 05:31:28;;;;;;;18.67;8.00;;;;;;;16.15;100.00;94756.25;5061198;28;20033;-88
2022/10/21 05:33:53;;;;;;;16.90;7.03;;;;;;;16.30;100.00;94755.19;5077794;28;20077;-89
2022/10/21 05:36:19;;;;;;;16.23;6.57;;;;;;;16.35;100.00;94760.38;5069246;28;20028;-88
2022/10/21 05:38:44;;;;;;;13.00;6.35;;;;;;;16.37;100.00;94768.00;5067870;28;20183;-89
2022/10/21 05:41:10;;;;;;;12.85;6.40;;;;;;;16.38;100.00;94770.34;5064422;28;20064;-89
2022/10/21 05:43:36;;;;;;;14.52;5.70;;;;;;;16.49;100.00;94775.44;5052848;28;20029;-89
2022/10/21 05:46:03;;;;;;;11.18;5.95;;;;;;;16.48;100.00;94777.28;5058810;28;20028;-89
2022/10/21 05:48:28;;;;;;;14.65;6.47;;;;;;;16.38;100.00;94786.22;5040839;28;20026;-89
2022/10/21 05:50:54;;;;;;;11.40;6.18;;;;;;;16.55;100.00;94787.47;5059932;28;20331;-89
2022/10/21 05:53:20;;;;;;;15.13;5.50;;;;;;;16.60;100.00;94786.59;5077109;28;20027;-90
2022/10/21 05:55:54;;;;;;;11.77;5.80;;;;;;;16.70;100.00;94772.38;5077073;28;20025;-89
2022/10/21 05:58:20;;;;;;;14.00;6.18;;;;;;;16.46;100.00;94770.75;5076209;28;20021;-89
2022/10/21 06:00:47;;;;;;;15.57;6.60;;;;;;;16.44;100.00;94778.97;5077033;28;20051;-89
2022/10/21 06:03:12;;;;;;;11.35;5.45;;;;;;;16.68;100.00;94780.63;5059927;28;20461;-88
2022/10/21 06:05:37;;;;;;;16.40;5.78;;;;;;;16.59;100.00;94771.81;5074006;28;20122;-89
2022/10/21 06:08:03;;;;;;;11.48;5.43;;;;;;;16.53;100.00;94782.50;5058277;28;20028;-89
2022/10/21 06:10:29;;;;;;;10.80;4.80;;;;;;;16.58;100.00;94783.47;5040593;28;20096;-90
2022/10/21 06:12:54;;;;;;;19.55;5.75;;;;;;;16.51;100.00;94781.22;5063132;28;20141;-89
2022/10/21 06:15:19;;;;;;;10.38;4.60;;;;;;;16.42;100.00;94778.47;5077132;28;20029;-90
2022/10/21 06:17:45;;;;;;;9.45;4.90;;;;;;;16.52;100.00;94775.66;5076473;28;20036;-90
2022/10/21 06:20:10;;;;;;;10.82;4.95;;;;;;;16.63;100.00;94781.50;5059728;28;20031;-91
2022/10/21 06:22:36;;;;;;;9.15;4.53;;;;;;;16.59;100.00;94777.09;5077660;28;20031;-92
2022/10/21 06:25:01;;;;;;;11.57;4.60;;;;;;;16.84;100.00;94785.59;5060085;28;20086;-94
2022/10/21 06:27:34;;;;;;;8.63;4.90;;;;;;;16.78;100.00;94788.34;5060031;28;20028;-93
2022/10/21 06:29:59;;;;;;;10.67;4.83;;;;;;;16.92;100.00;94787.53;5061063;28;20082;-91
2022/10/21 06:32:25;;;;;;;11.63;4.70;;;;;;;16.70;100.00;94791.69;5076280;28;20032;-92
2022/10/21 06:34:50;;;;;;;13.55;5.03;;;;;;;16.91;100.00;94783.31;5077966;28;20040;-94
2022/10/21 06:37:15;;;;;;;13.65;5.00;;;;;;;17.03;100.00;94794.22;5059490;28;20033;-92
2022/10/21 06:39:41;;;;;;;18.83;5.70;;;;;;;17.11;100.00;94779.50;5077387;28;20434;-92
2022/10/21 06:42:06;;;;;;;15.75;5.55;;;;;;;17.07;100.00;94779.31;5059539;28;20094;-91
2022/10/21 06:44:32;;;;;;;13.73;5.35;;;;;;;17.15;100.00;94780.47;5059533;28;20085;-89
2022/10/21 06:46:57;;;;;;;9.63;4.68;;;;;;;17.20;100.00;94782.22;5039588;28;20021;-90
2022/10/21 06:49:22;;;;;;;15.18;5.53;;;;;;;17.29;100.00;94795.53;5072808;28;20021;-91
2022/10/21 06:51:48;;;;;;;10.77;4.88;;;;;;;17.31;100.00;94796.78;5056141;28;20128;-92
2022/10/21 06:54:13;;;;;;;12.07;5.63;;;;;;;16.91;100.00;94797.34;5056242;28;20028;-93
2022/10/21 06:56:39;;;;;;;12.32;4.80;;;;;;;17.10;100.00;94791.97;5060888;28;20024;-92
2022/10/21 06:59:04;;;;;;;10.43;4.78;;;;;;;17.32;100.00;94794.94;5080830;28;20028;-90
2022/10/21 07:01:35;;;;;;;14.35;5.05;;;;;;;17.02;100.00;94805.88;5076373;28;20024;-92
2022/10/21 07:04:02;;;;;;;12.85;4.80;;;;;;;17.41;100.00;94818.84;5075882;28;20338;-91
2022/10/21 07:06:27;;;;;;;15.10;5.25;;;;;;;17.58;100.00;94815.56;5075717;28;20025;-92
2022/10/21 07:08:57;;;;;;;12.52;5.68;;;;;;;17.69;95.86;94814.22;5075510;28;20028;-91
2022/10/21 07:11:23;;;;;;;13.90;5.53;;;;;;;17.79;99.07;94819.28;5059497;28;20044;-90
2022/10/21 07:13:48;;;;;;;10.40;4.95;;;;;;;17.61;100.00;94818.38;5077020;28;20082;-88
2022/10/21 07:16:21;;;;;;;12.20;4.82;;;;;;;17.85;100.00;94816.50;5075890;28;20054;-90
2022/10/21 07:18:46;;;;;;;13.18;5.65;;;;;;;17.57;100.00;94808.66;5075607;28;20104;-90
2022/10/21 07:21:17;;;;;;;13.43;4.90;;;;;;;17.72;100.00;94810.19;5058887;28;20115;-89
2022/10/21 07:23:44;;;;;;;11.77;4.20;;;;;;;17.81;100.00;94803.84;5075838;28;20031;-89
2022/10/21 07:26:10;;;;;;;8.55;5.05;;;;;;;17.77;100.00;94797.59;5076112;28;20033;-90
2022/10/21 07:28:36;;;;;;;14.95;5.07;;;;;;;17.66;100.00;94799.72;5075769;28;20095;-91
2022/10/21 07:31:03;;;;;;;10.02;4.60;;;;;;;17.72;99.20;94797.72;5075444;28;20035;-91
2022/10/21 07:33:29;;;;;;;12.02;4.43;;;;;;;17.74;100.00;94808.00;5075451;28;20028;-90
2022/10/21 07:36:08;;;;;;;15.75;5.22;;;;;;;17.90;100.00;94795.94;5076636;28;20372;-91
2022/10/21 07:38:34;;;;;;;10.80;4.95;;;;;;;17.93;100.00;94813.91;5075401;28;20036;-90
2022/10/21 07:41:00;;;;;;;12.48;4.20;;;;;;;17.79;99.52;94811.31;5078245;28;20341;-91
2022/10/21 07:43:25;;;;;;;11.20;4.70;;;;;;;17.66;100.00;94810.31;5095494;28;20448;-91
2022/10/21 07:45:51;;;;;;;8.50;4.15;;;;;;;17.61;100.00;94821.00;5090995;28;20031;-91
2022/10/21 07:48:16;;;;;;;9.27;4.93;;;;;;;17.80;99.23;94820.84;5075378;28;20025;-92
2022/10/21 07:50:41;;;;;;;12.98;3.92;;;;;;;17.93;90.00;94805.97;5076433;28;20028;-93
2022/10/21 07:53:07;;;;;;;9.40;3.95;;;;;;;18.23;96.56;94810.81;5059091;28;20021;-92
2022/10/21 07:55:32;;;;;;;13.73;3.38;;;;;;;18.15;88.27;94816.88;5075423;28;20090;-89
2022/10/21 07:57:58;;;;;;;9.13;3.63;;;;;;;18.59;79.46;94806.44;5075720;28;20032;-92
2022/10/21 08:00:24;;;;;;;12.32;3.10;;;;;;;18.61;78.58;94802.38;5075280;28;20032;-95
2022/10/21 08:02:54;;;;;;;10.00;3.70;;;;;;;18.20;100.00;94806.13;5047515;28;20422;-94
2022/10/21 08:05:20;;;;;;;5.82;3.22;;;;;;;18.59;94.36;94807.22;5038883;28;20128;-93
2022/10/21 08:07:45;;;;;;;7.00;2.95;;;;;;;18.62;81.43;94808.47;5055646;28;20036;-95
2022/10/21 08:10:11;;;;;;;7.90;2.80;;;;;;;18.77;83.81;94815.22;5039132;28;20111;-95
2022/10/21 08:12:36;;;;;;;5.88;2.92;;;;;;;18.61;81.91;94801.59;5038971;28;20025;-94
2022/10/21 08:15:02;;;;;;;5.45;2.85;;;;;;;18.46;85.04;94802.81;5038849;28;20124;-94
2022/10/21 08:17:27;;;;;;;12.27;3.10;;;;;;;18.50;85.72;94796.56;5038604;28;20091;-93
2022/10/21 08:19:55;;;;;;;9.27;3.47;;;;;;;18.44;86.30;94791.72;5039163;28;20033;-93
2022/10/21 08:22:20;;;;;;;5.30;2.83;;;;;;;18.82;82.89;94803.69;5041213;28;20408;-93
2022/10/21 08:24:46;;;;;;;9.52;3.38;;;;;;;18.77;86.76;94796.66;5042692;28;20025;-93
2022/10/21 08:27:11;;;;;;;5.05;2.95;;;;;;;18.99;82.89;94792.31;5058843;28;20024;-92
2022/10/21 08:29:37;;;;;;;8.63;3.33;;;;;;;18.79;92.07;94802.44;5059056;28;20078;-91
2022/10/21 08:32:03;;;;;;;7.28;2.97;;;;;;;18.84;91.64;94796.97;5042389;28;20028;-93
2022/10/21 08:34:28;;;;;;;4.05;2.50;;;;;;;18.86;78.26;94804.63;5042087;28;20034;-93
2022/10/21 08:36:54;;;;;;;7.13;2.90;;;;;;;18.96;78.56;94809.66;5042328;28;20487;-93
2022/10/21 08:39:19;;;;;;;7.15;3.08;;;;;;;18.86;83.95;94809.94;5042431;28;20086;-93
2022/10/21 08:41:54;;;;;;;5.60;3.13;;;;;;;18.93;84.86;94805.75;5058448;28;20047;-91
2022/10/21 08:44:22;;;;;;;4.78;2.80;;;;;;;19.12;82.90;94811.91;5059521;28;20029;-91
2022/10/21 08:46:57;;;;;;;12.65;3.67;;;;;;;19.21;79.42;94818.78;5059533;28;20025;-91
2022/10/21 08:49:54;;;;;;;7.32;3.33;;;;;;;18.96;81.15;94817.63;5058312;28;20040;-91
2022/10/21 08:52:30;;;;;;;8.68;3.40;;;;;;;18.81;85.70;94823.38;5059452;28;20159;-95
2022/10/21 08:54:59;;;;;;;9.00;3.53;;;;;;;18.85;83.16;94816.34;5043028;28;20040;-89
2022/10/21 08:57:25;;;;;;;12.07;3.40;;;;;;;18.35;100.00;94823.50;5058160;28;20127;-89
2022/10/21 08:59:51;;;;;;;9.50;3.40;;;;;;;18.54;97.43;94819.84;5043252;28;20033;-89
2022/10/21 09:02:22;;;;;;;14.55;3.30;;;;;;;18.22;97.68;94823.31;5059011;28;20033;-89
2022/10/21 09:05:09;;;;;;;7.53;3.33;;;;;;;18.41;100.00;94822.28;5059466;28;20035;-88
2022/10/21 09:07:42;;;;;;;7.72;3.88;;;;;;;18.51;92.18;94815.94;5069278;28;20056;-89
2022/10/21 09:10:27;;;;;;;6.22;3.22;;;;;;;18.76;89.43;94818.97;5079056;28;20028;-89
2022/10/21 09:13:25;;;;;;;8.13;3.42;;;;;;;18.57;100.00;94821.88;5061973;28;20090;-89
2022/10/21 09:15:59;;;;;;;13.18;3.80;;;;;;;18.53;99.47;94818.28;5042979;28;20351;-91
2022/10/21 09:18:43;;;;;;;8.25;3.92;;;;;;;18.35;92.12;94811.03;5060764;28;20048;-90
2022/10/21 09:21:11;;;;;;;6.93;3.25;;;;;;;18.35;95.71;94811.03;5076098;28;20441;-90
2022/10/21 09:24:08;;;;;;;6.88;2.75;;;;;;;18.70;91.59;94805.06;5061261;28;20036;-89
2022/10/21 09:26:42;;;;;;;8.15;2.92;;;;;;;18.92;89.82;94816.66;5078063;28;20050;-89
2022/10/21 09:29:37;;;;;;;6.20;3.05;;;;;;;18.89;96.84;94814.63;5077893;28;20028;-89
2022/10/21 09:32:13;;;;;;;11.27;3.22;;;;;;;19.04;89.11;94811.56;5060902;28;20050;-90
2022/10/21 09:35:00;;;;;;;6.13;2.97;;;;;;;19.32;87.80;94819.25;5061079;28;20127;-90
2022/10/21 09:37:39;;;;;;;10.85;3.65;;;;;;;19.53;85.53;94816.00;5078641;28;20425;-91
2022/10/21 09:40:15;;;;;;;12.95;3.15;;;;;;;19.47;84.97;94812.69;5077536;28;20085;-90
2022/10/21 09:42:41;;;;;;;6.55;3.60;;;;;;;19.30;84.80;94802.06;5077483;28;20157;-90
2022/10/21 09:45:20;;;;;;;13.13;3.30;;;;;;;18.97;78.74;94803.25;5077308;28;20106;-90
2022/10/21 09:47:53;;;;;;;10.02;3.25;;;;;;;19.32;88.01;94805.19;5078449;28;20040;-90
2022/10/21 09:50:19;;;;;;;15.03;3.37;;;;;;;19.48;89.14;94803.63;5060643;28;20024;-90
2022/10/21 09:52:50;;;;;;;8.73;3.15;;;;;;;19.62;99.41;94800.81;5077348;28;20082;-89
2022/10/21 09:55:15;;;;;;;8.30;3.30;;;;;;;19.69;100.00;94802.97;5077394;28;20142;-90
2022/10/21 09:57:50;;;;;;;8.40;3.08;;;;;;;19.76;96.42;94802.50;5078193;28;20115;-91
2022/10/21 10:00:15;;;;;;;6.65;2.97;;;;;;;19.78;78.94;94814.41;5076858;28;20032;-90
2022/10/21 10:02:43;;;;;;;9.40;2.85;;;;;;;19.96;74.00;94808.31;5060557;28;20029;-90
2022/10/21 10:05:39;;;;;;;7.88;3.15;;;;;;;19.69;79.01;94810.19;5060499;28;20028;-90
2022/10/21 10:08:27;;;;;;;4.30;2.85;;;;;;;19.76;75.74;94808.63;5074877;28;20028;-90
2022/10/21 10:11:03;;;;;;;5.70;3.15;;;;;;;19.84;76.49;94806.25;5077902;28;20033;-90
2022/10/21 10:13:30;;;;;;;6.32;2.75;;;;;;;19.84;84.68;94807.03;5093603;28;20440;-90
2022/10/21 10:16:10;;;;;;;11.70;3.35;;;;;;;19.71;100.00;94810.66;5060104;28;20067;-90
2022/10/21 10:18:36;;;;;;;5.88;3.00;;;;;;;19.27;100.00;94811.44;5077744;28;20040;-89
2022/10/21 10:21:14;;;;;;;6.82;3.15;;;;;;;19.55;100.00;94805.03;5078157;28;20032;-90
2022/10/21 10:23:52;;;;;;;8.75;3.00;;;;;;;19.61;100.00;94804.56;5060029;28;20090;-89
2022/10/21 10:26:29;;;;;;;8.77;2.90;;;;;;;19.30;100.00;94789.56;5060305;28;20056;-90
2022/10/21 10:29:02;;;;;;;8.35;3.70;;;;;;;19.07;100.00;94788.94;5076445;28;20418;-90
2022/10/21 10:31:32;;;;;;;7.88;3.55;;;;;;;19.05;100.00;94783.91;5076583;28;20086;-90
2022/10/21 10:34:06;;;;;;;8.18;3.28;;;;;;;18.97;100.00;94776.72;5076608;28;20047;-90
2022/10/21 10:36:37;;;;;;;9.80;3.53;;;;;;;18.84;100.00;94764.34;5060341;28;20021;-91
2022/10/21 10:39:06;;;;;;;6.38;2.90;;;;;;;19.08;93.16;94779.88;5059736;28;20028;-91
2022/10/21 10:41:37;;;;;;;7.25;3.00;;;;;;;18.86;93.94;94767.47;5048667;28;20032;-92
2022/10/21 10:44:25;;;;;;;8.30;3.50;;;;;;;18.58;100.00;94757.09;5055654;28;20029;-91
2022/10/21 10:46:55;;;;;;;9.10;3.58;;;;;;;18.93;95.63;94749.19;5057226;28;20033;-91
2022/10/21 10:49:23;;;;;;;7.97;3.15;;;;;;;19.11;85.37;94736.75;5039378;28;20068;-90
2022/10/21 10:52:09;;;;;;;8.43;3.63;;;;;;;19.32;99.88;94736.91;5055875;28;20067;-90
2022/10/21 10:54:39;;;;;;;7.43;3.20;;;;;;;18.75;100.00;94725.28;5049894;28;20140;-91
2022/10/21 10:57:22;;;;;;;6.97;3.28;;;;;;;19.01;98.17;94721.91;5055854;28;20033;-91
2022/10/21 11:00:23;;;;;;;6.97;3.13;;;;;;;19.05;100.00;94714.88;5039828;28;20032;-90
2022/10/21 11:02:58;;;;;;;6.45;2.92;;;;;;;19.21;100.00;94712.53;5039586;28;20123;-92
2022/10/21 11:05:27;;;;;;;5.70;3.22;;;;;;;19.23;100.00;94712.25;5039401;28;20090;-90
2022/10/21 11:07:56;;;;;;;9.13;3.10;;;;;;;18.69;97.51;94710.63;5039339;28;20029;-91
2022/10/21 11:10:38;;;;;;;9.25;3.75;;;;;;;18.79;96.42;94717.50;5055616;28;20075;-89
2022/10/21 11:13:32;;;;;;;7.72;3.45;;;;;;;19.02;96.42;94718.16;5070071;28;20025;-90
2022/10/21 11:16:35;;;;;;;8.35;3.72;;;;;;;19.02;87.92;94722.72;5067317;28;20044;-90
2022/10/21 11:19:25;;;;;;;5.80;3.17;;;;;;;18.91;89.15;94730.16;5076872;28;20024;-89
2022/10/21 11:21:59;;;;;;;7.28;3.28;;;;;;;18.99;96.39;94733.91;5076415;28;20028;-90
2022/10/21 11:24:49;;;;;;;5.95;3.25;;;;;;;18.87;90.74;94743.28;5075571;28;20028;-90
2022/10/21 11:27:47;;;;;;;8.52;3.28;;;;;;;18.87;86.59;94740.63;5055633;28;20131;-90
2022/10/21 11:30:19;;;;;;;9.77;3.40;;;;;;;19.06;80.14;94748.31;5076197;28;20030;-91
2022/10/21 11:32:57;;;;;;;9.15;3.50;;;;;;;19.10;82.20;94740.50;5075686;28;20456;-91
2022/10/21 11:35:37;;;;;;;13.35;3.88;;;;;;;19.09;78.49;94757.53;5075651;28;20341;-90
2022/10/21 11:38:15;;;;;;;14.82;4.03;;;;;;;19.47;72.91;94748.94;5058889;28;20067;-91